sensor_id;sensor_type;location;lat;lon;timestamp;pressure;altitude;pressure_sealevel;temperature;humidity
69574;BME280;62840;52.366;5.980;2023-10-09T00:02:27;101890.69;;;14.23;69.71
69574;BME280;62840;52.366;5.980;2023-10-09T00:04:53;101888.00;;;14.23;69.57
69574;BME280;62840;52.366;5.980;2023-10-09T00:07:18;101888.00;;;14.23;69.91
69574;BME280;62840;52.366;5.980;2023-10-09T00:09:44;101896.06;;;14.23;69.58
69574;BME280;62840;52.366;5.980;2023-10-09T00:12:10;101901.41;;;14.23;69.70
69574;BME280;62840;52.366;5.980;2023-10-09T00:14:35;101900.56;;;14.23;69.68
69574;BME280;62840;52.366;5.980;2023-10-09T00:17:01;101901.41;;;14.23;69.73
69574;BME280;62840;52.366;5.980;2023-10-09T00:19:29;101885.31;;;14.23;69.94
69574;BME280;62840;52.366;5.980;2023-10-09T00:21:56;101890.69;;;14.23;70.19
69574;BME280;62840;52.366;5.980;2023-10-09T00:24:21;101883.38;;;14.25;69.88
69574;BME280;62840;52.366;5.980;2023-10-09T00:26:47;101878.84;;;14.26;70.21
69574;BME280;62840;52.366;5.980;2023-10-09T00:29:13;101879.69;;;14.26;70.14
69574;BME280;62840;52.366;5.980;2023-10-09T00:31:40;101873.09;;;14.30;70.13
69574;BME280;62840;52.366;5.980;2023-10-09T00:34:06;101872.13;;;14.31;70.46
69574;BME280;62840;52.366;5.980;2023-10-09T00:36:34;101874.56;;;14.34;70.30
69574;BME280;62840;52.366;5.980;2023-10-09T00:39:00;101869.94;;;14.36;70.22
69574;BME280;62840;52.366;5.980;2023-10-09T00:41:25;101860.88;;;14.37;70.62
69574;BME280;62840;52.366;5.980;2023-10-09T00:43:52;101859.78;;;14.40;70.50
69574;BME280;62840;52.366;5.980;2023-10-09T00:46:19;101851.59;;;14.41;70.39
69574;BME280;62840;52.366;5.980;2023-10-09T00:48:47;101862.09;;;14.45;70.53
69574;BME280;62840;52.366;5.980;2023-10-09T00:51:16;101857.44;;;14.47;70.67
69574;BME280;62840;52.366;5.980;2023-10-09T00:53:48;101859.03;;;14.49;70.53
69574;BME280;62840;52.366;5.980;2023-10-09T00:56:15;101848.03;;;14.52;70.54
69574;BME280;62840;52.366;5.980;2023-10-09T00:58:40;101841.56;;;14.55;70.49
69574;BME280;62840;52.366;5.980;2023-10-09T01:01:06;101848.38;;;14.59;70.66
69574;BME280;62840;52.366;5.980;2023-10-09T01:03:32;101830.31;;;14.61;70.96
69574;BME280;62840;52.366;5.980;2023-10-09T01:05:59;101830.03;;;14.64;70.77
69574;BME280;62840;52.366;5.980;2023-10-09T01:08:28;101819.75;;;14.69;71.00
69574;BME280;62840;52.366;5.980;2023-10-09T01:10:57;101813.19;;;14.73;70.91
69574;BME280;62840;52.366;5.980;2023-10-09T01:13:24;101807.56;;;14.76;70.81
69574;BME280;62840;52.366;5.980;2023-10-09T01:15:50;101819.03;;;14.78;71.04
69574;BME280;62840;52.366;5.980;2023-10-09T01:18:16;101817.75;;;14.82;70.79
69574;BME280;62840;52.366;5.980;2023-10-09T01:20:41;101817.53;;;14.86;71.04
69574;BME280;62840;52.366;5.980;2023-10-09T01:23:13;101824.34;;;14.90;71.35
69574;BME280;62840;52.366;5.980;2023-10-09T01:25:38;101824.06;;;14.93;71.22
69574;BME280;62840;52.366;5.980;2023-10-09T01:28:04;101822.09;;;14.95;71.25
69574;BME280;62840;52.366;5.980;2023-10-09T01:30:30;101824.50;;;14.98;71.54
69574;BME280;62840;52.366;5.980;2023-10-09T01:32:56;101818.03;;;15.00;71.29
69574;BME280;62840;52.366;5.980;2023-10-09T01:35:23;101814.22;;;15.03;71.44
69574;BME280;62840;52.366;5.980;2023-10-09T01:37:48;101818.34;;;15.07;71.75
69574;BME280;62840;52.366;5.980;2023-10-09T01:40:17;101810.03;;;15.10;71.32
69574;BME280;62840;52.366;5.980;2023-10-09T01:42:43;101799.00;;;15.13;71.68
69574;BME280;62840;52.366;5.980;2023-10-09T01:45:09;101796.94;;;15.17;71.69
69574;BME280;62840;52.366;5.980;2023-10-09T01:47:35;101802.16;;;15.18;71.52
69574;BME280;62840;52.366;5.980;2023-10-09T01:50:01;101801.91;;;15.21;71.53
69574;BME280;62840;52.366;5.980;2023-10-09T01:52:27;101801.63;;;15.24;71.92
69574;BME280;62840;52.366;5.980;2023-10-09T01:54:53;101791.59;;;15.27;71.82
69574;BME280;62840;52.366;5.980;2023-10-09T01:57:21;101789.50;;;15.30;71.58
69574;BME280;62840;52.366;5.980;2023-10-09T01:59:47;101789.22;;;15.33;71.65
69574;BME280;62840;52.366;5.980;2023-10-09T02:02:13;101778.06;;;15.38;71.86
69574;BME280;62840;52.366;5.980;2023-10-09T02:04:39;101769.72;;;15.41;72.04
69574;BME280;62840;52.366;5.980;2023-10-09T02:07:04;101762.38;;;15.43;72.21
69574;BME280;62840;52.366;5.980;2023-10-09T02:09:30;101755.84;;;15.45;71.81
69574;BME280;62840;52.366;5.980;2023-10-09T02:11:56;101748.38;;;15.49;71.84
69574;BME280;62840;52.366;5.980;2023-10-09T02:14:24;101750.78;;;15.52;71.64
69574;BME280;62840;52.366;5.980;2023-10-09T02:16:50;101738.78;;;15.56;71.61
69574;BME280;62840;52.366;5.980;2023-10-09T02:19:16;101750.25;;;15.58;71.65
69574;BME280;62840;52.366;5.980;2023-10-09T02:21:41;101748.28;;;15.60;72.06
69574;BME280;62840;52.366;5.980;2023-10-09T02:24:07;101757.06;;;15.62;71.69
69574;BME280;62840;52.366;5.980;2023-10-09T02:26:33;101749.72;;;15.64;71.74
69574;BME280;62840;52.366;5.980;2023-10-09T02:28:59;101750.41;;;15.67;71.92
69574;BME280;62840;52.366;5.980;2023-10-09T02:31:27;101744.03;;;15.68;71.96
69574;BME280;62840;52.366;5.980;2023-10-09T02:33:54;101745.75;;;15.69;71.78
69574;BME280;62840;52.366;5.980;2023-10-09T02:36:19;101745.47;;;15.72;72.18
69574;BME280;62840;52.366;5.980;2023-10-09T02:38:45;101748.03;;;15.73;71.76
69574;BME280;62840;52.366;5.980;2023-10-09T02:41:11;101734.41;;;15.75;71.97
69574;BME280;62840;52.366;5.980;2023-10-09T02:43:36;101725.38;;;15.76;72.21
69574;BME280;62840;52.366;5.980;2023-10-09T02:46:02;101734.16;;;15.78;71.84
69574;BME280;62840;52.366;5.980;2023-10-09T02:48:30;101724.16;;;15.80;71.88
69574;BME280;62840;52.366;5.980;2023-10-09T02:50:56;101725.72;;;15.82;72.31
69574;BME280;62840;52.366;5.980;2023-10-09T02:53:22;101740.00;;;15.83;71.90
69574;BME280;62840;52.366;5.980;2023-10-09T02:55:47;101735.34;;;15.85;72.06
69574;BME280;62840;52.366;5.980;2023-10-09T02:58:13;101738.75;;;15.87;72.31
69574;BME280;62840;52.366;5.980;2023-10-09T03:00:39;101740.44;;;15.88;71.89
69574;BME280;62840;52.366;5.980;2023-10-09T03:03:04;101740.16;;;15.91;71.94
69574;BME280;62840;52.366;5.980;2023-10-09T03:05:33;101738.19;;;15.93;72.17
69574;BME280;62840;52.366;5.980;2023-10-09T03:07:59;101724.56;;;15.95;72.31
69574;BME280;62840;52.366;5.980;2023-10-09T03:10:25;101720.03;;;15.95;72.27
69574;BME280;62840;52.366;5.980;2023-10-09T03:12:51;101720.75;;;15.97;72.09
69574;BME280;62840;52.366;5.980;2023-10-09T03:15:17;101725.16;;;15.98;71.78
69574;BME280;62840;52.366;5.980;2023-10-09T03:17:43;101728.56;;;16.00;72.33
69574;BME280;62840;52.366;5.980;2023-10-09T03:20:09;101715.81;;;16.02;72.10
69574;BME280;62840;52.366;5.980;2023-10-09T03:22:38;101723.72;;;16.04;71.87
69574;BME280;62840;52.366;5.980;2023-10-09T03:25:05;101726.28;;;16.05;72.40
69574;BME280;62840;52.366;5.980;2023-10-09T03:27:32;101727.97;;;16.06;72.14
69574;BME280;62840;52.366;5.980;2023-10-09T03:29:58;101718.94;;;16.08;72.05
69574;BME280;62840;52.366;5.980;2023-10-09T03:32:23;101720.59;;;16.09;71.93
69574;BME280;62840;52.366;5.980;2023-10-09T03:34:49;101706.19;;;16.10;72.23
69574;BME280;62840;52.366;5.980;2023-10-09T03:37:15;101709.59;;;16.12;72.20
69574;BME280;62840;52.366;5.980;2023-10-09T03:39:43;101700.50;;;16.13;72.26
69574;BME280;62840;52.366;5.980;2023-10-09T03:42:09;101714.66;;;16.15;71.94
69574;BME280;62840;52.366;5.980;2023-10-09T03:44:34;101711.00;;;16.16;72.02
69574;BME280;62840;52.366;5.980;2023-10-09T03:47:00;101718.06;;;16.17;71.90
69574;BME280;62840;52.366;5.980;2023-10-09T03:49:26;101725.13;;;16.18;72.09
69574;BME280;62840;52.366;5.980;2023-10-09T03:51:52;101730.53;;;16.18;72.43
69574;BME280;62840;52.366;5.980;2023-10-09T03:54:18;101743.00;;;16.19;72.16
69574;BME280;62840;52.366;5.980;2023-10-09T03:56:47;101729.53;;;16.19;72.01
69574;BME280;62840;52.366;5.980;2023-10-09T03:59:12;101738.47;;;16.19;72.45
69574;BME280;62840;52.366;5.980;2023-10-09T04:01:38;101739.31;;;16.20;72.44
69574;BME280;62840;52.366;5.980;2023-10-09T04:04:05;101730.25;;;16.21;72.10
69574;BME280;62840;52.366;5.980;2023-10-09T04:06:32;101725.72;;;16.21;72.15
69574;BME280;62840;52.366;5.980;2023-10-09T04:08:59;101731.94;;;16.22;72.48
69574;BME280;62840;52.366;5.980;2023-10-09T04:11:26;101744.44;;;16.23;72.05
69574;BME280;62840;52.366;5.980;2023-10-09T04:13:54;101738.03;;;16.24;72.45
69574;BME280;62840;52.366;5.980;2023-10-09T04:16:20;101734.22;;;16.26;72.47
69574;BME280;62840;52.366;5.980;2023-10-09T04:18:45;101742.16;;;16.28;72.50
69574;BME280;62840;52.366;5.980;2023-10-09T04:21:11;101747.53;;;16.28;72.42
69574;BME280;62840;52.366;5.980;2023-10-09T04:23:37;101742.16;;;16.28;72.58
69574;BME280;62840;52.366;5.980;2023-10-09T04:26:02;101740.31;;;16.28;72.53
69574;BME280;62840;52.366;5.980;2023-10-09T04:28:28;101739.31;;;16.30;72.25
69574;BME280;62840;52.366;5.980;2023-10-09T04:30:56;101729.41;;;16.30;72.41
69574;BME280;62840;52.366;5.980;2023-10-09T04:33:22;101720.31;;;16.31;72.56
69574;BME280;62840;52.366;5.980;2023-10-09T04:35:48;101727.41;;;16.32;72.56
69574;BME280;62840;52.366;5.980;2023-10-09T04:38:13;101730.81;;;16.34;72.44
69574;BME280;62840;52.366;5.980;2023-10-09T04:40:39;101725.44;;;16.34;72.73
69574;BME280;62840;52.366;5.980;2023-10-09T04:43:05;101723.44;;;16.36;72.69
69574;BME280;62840;52.366;5.980;2023-10-09T04:45:31;101735.91;;;16.37;72.38
69574;BME280;62840;52.366;5.980;2023-10-09T04:47:59;101742.00;;;16.39;72.45
69574;BME280;62840;52.366;5.980;2023-10-09T04:50:25;101741.88;;;16.41;72.52
69574;BME280;62840;52.366;5.980;2023-10-09T04:52:50;101732.78;;;16.42;72.45
69574;BME280;62840;52.366;5.980;2023-10-09T04:55:16;101735.47;;;16.42;72.36
69574;BME280;62840;52.366;5.980;2023-10-09T04:57:43;101732.78;;;16.42;72.58
69574;BME280;62840;52.366;5.980;2023-10-09T05:00:11;101737.03;;;16.44;72.57
69574;BME280;62840;52.366;5.980;2023-10-09T05:02:39;101725.28;;;16.45;72.30
69574;BME280;62840;52.366;5.980;2023-10-09T05:05:08;101736.75;;;16.47;72.59
69574;BME280;62840;52.366;5.980;2023-10-09T05:07:33;101738.44;;;16.48;72.40
69574;BME280;62840;52.366;5.980;2023-10-09T05:09:59;101744.53;;;16.51;72.81
69574;BME280;62840;52.366;5.980;2023-10-09T05:12:25;101747.22;;;16.51;72.62
69574;BME280;62840;52.366;5.980;2023-10-09T05:14:51;101753.31;;;16.53;72.45
69574;BME280;62840;52.366;5.980;2023-10-09T05:17:16;101752.50;;;16.52;72.48
69574;BME280;62840;52.366;5.980;2023-10-09T05:19:43;101752.31;;;16.54;72.42
69574;BME280;62840;52.366;5.980;2023-10-09T05:22:12;101747.81;;;16.54;72.56
69574;BME280;62840;52.366;5.980;2023-10-09T05:24:40;101756.03;;;16.53;72.81
69574;BME280;62840;52.366;5.980;2023-10-09T05:27:06;101768.47;;;16.54;72.57
69574;BME280;62840;52.366;5.980;2023-10-09T05:29:31;101763.09;;;16.54;72.69
69574;BME280;62840;52.366;5.980;2023-10-09T05:31:58;101780.97;;;16.55;72.33
69574;BME280;62840;52.366;5.980;2023-10-09T05:34:24;101782.66;;;16.56;72.67
69574;BME280;62840;52.366;5.980;2023-10-09T05:36:50;101785.34;;;16.56;72.75
69574;BME280;62840;52.366;5.980;2023-10-09T05:39:18;101788.03;;;16.56;72.75
69574;BME280;62840;52.366;5.980;2023-10-09T05:41:45;101788.03;;;16.56;72.92
69574;BME280;62840;52.366;5.980;2023-10-09T05:44:11;101786.34;;;16.55;72.87
69574;BME280;62840;52.366;5.980;2023-10-09T05:46:37;101789.75;;;16.57;72.82
69574;BME280;62840;52.366;5.980;2023-10-09T05:49:03;101780.66;;;16.58;72.73
69574;BME280;62840;52.366;5.980;2023-10-09T05:51:28;101773.31;;;16.60;72.79
69574;BME280;62840;52.366;5.980;2023-10-09T05:53:54;101780.41;;;16.61;73.09
69574;BME280;62840;52.366;5.980;2023-10-09T05:56:22;101782.09;;;16.62;72.61
69574;BME280;62840;52.366;5.980;2023-10-09T05:58:48;101770.31;;;16.63;72.69
69574;BME280;62840;52.366;5.980;2023-10-09T06:01:14;101777.53;;;16.62;72.89
69574;BME280;62840;52.366;5.980;2023-10-09T06:03:39;101778.38;;;16.63;72.93
69574;BME280;62840;52.366;5.980;2023-10-09T06:06:05;101779.25;;;16.63;72.95
69574;BME280;62840;52.366;5.980;2023-10-09T06:08:31;101766.63;;;16.64;73.05
69574;BME280;62840;52.366;5.980;2023-10-09T06:10:57;101738.69;;;16.65;72.84
69574;BME280;62840;52.366;5.980;2023-10-09T06:13:25;101752.88;;;16.67;73.34
69574;BME280;62840;52.366;5.980;2023-10-09T06:15:51;101757.41;;;16.66;73.26
69574;BME280;62840;52.366;5.980;2023-10-09T06:18:17;101755.56;;;16.67;73.05
69574;BME280;62840;52.366;5.980;2023-10-09T06:20:43;101761.66;;;16.69;73.20
69574;BME280;62840;52.366;5.980;2023-10-09T06:23:08;101776.84;;;16.70;73.11
69574;BME280;62840;52.366;5.980;2023-10-09T06:25:35;101785.75;;;16.71;72.75
69574;BME280;62840;52.366;5.980;2023-10-09T06:28:01;101777.56;;;16.72;73.09
69574;BME280;62840;52.366;5.980;2023-10-09T06:30:30;101775.84;;;16.71;72.93
69574;BME280;62840;52.366;5.980;2023-10-09T06:32:56;101781.22;;;16.71;73.39
69574;BME280;62840;52.366;5.980;2023-10-09T06:35:21;101788.31;;;16.72;72.92
69574;BME280;62840;52.366;5.980;2023-10-09T06:37:49;101779.25;;;16.73;73.14
69574;BME280;62840;52.366;5.980;2023-10-09T06:40:15;101778.09;;;16.76;73.34
69574;BME280;62840;52.366;5.980;2023-10-09T06:42:41;101767.19;;;16.77;73.50
69574;BME280;62840;52.366;5.980;2023-10-09T06:45:09;101755.41;;;16.78;72.97
69574;BME280;62840;52.366;5.980;2023-10-09T06:47:39;101750.00;;;16.78;73.55
69574;BME280;62840;52.366;5.980;2023-10-09T06:50:05;101762.50;;;16.79;73.34
69574;BME280;62840;52.366;5.980;2023-10-09T06:52:32;101764.19;;;16.80;73.24
69574;BME280;62840;52.366;5.980;2023-10-09T06:54:57;101760.56;;;16.81;73.34
69574;BME280;62840;52.366;5.980;2023-10-09T06:57:23;101764.78;;;16.84;73.16
69574;BME280;62840;52.366;5.980;2023-10-09T06:59:49;101765.63;;;16.84;72.92
69574;BME280;62840;52.366;5.980;2023-10-09T07:02:14;101769.03;;;16.86;73.16
69574;BME280;62840;52.366;5.980;2023-10-09T07:04:43;101773.41;;;16.87;72.88
69574;BME280;62840;52.366;5.980;2023-10-09T07:07:08;101779.50;;;16.89;73.28
69574;BME280;62840;52.366;5.980;2023-10-09T07:09:34;101786.63;;;16.91;73.08
69574;BME280;62840;52.366;5.980;2023-10-09T07:12:00;101781.22;;;16.91;73.35
69574;BME280;62840;52.366;5.980;2023-10-09T07:14:25;101776.53;;;16.93;73.12
69574;BME280;62840;52.366;5.980;2023-10-09T07:16:51;101777.25;;;16.95;72.86
69574;BME280;62840;52.366;5.980;2023-10-09T07:19:17;101782.66;;;16.95;73.00
69574;BME280;62840;52.366;5.980;2023-10-09T07:21:45;101780.63;;;16.97;73.49
69574;BME280;62840;52.366;5.980;2023-10-09T07:24:11;101778.63;;;16.99;73.17
69574;BME280;62840;52.366;5.980;2023-10-09T07:26:36;101780.34;;;17.00;73.35
69574;BME280;62840;52.366;5.980;2023-10-09T07:29:03;101776.66;;;17.01;73.42
69574;BME280;62840;52.366;5.980;2023-10-09T07:31:30;101789.16;;;17.02;73.21
69574;BME280;62840;52.366;5.980;2023-10-09T07:33:56;101793.38;;;17.04;73.59
69574;BME280;62840;52.366;5.980;2023-10-09T07:36:22;101792.53;;;17.04;73.40
69574;BME280;62840;52.366;5.980;2023-10-09T07:38:50;101794.22;;;17.05;73.57
69574;BME280;62840;52.366;5.980;2023-10-09T07:41:16;101790.56;;;17.06;73.35
69574;BME280;62840;52.366;5.980;2023-10-09T07:43:42;101803.03;;;17.07;73.51
69574;BME280;62840;52.366;5.980;2023-10-09T07:46:09;101800.31;;;17.07;73.28
69574;BME280;62840;52.366;5.980;2023-10-09T07:48:36;101809.97;;;17.09;73.43
69574;BME280;62840;52.366;5.980;2023-10-09T07:51:01;101793.66;;;17.11;73.34
69574;BME280;62840;52.366;5.980;2023-10-09T07:53:27;101796.22;;;17.13;73.48
69574;BME280;62840;52.366;5.980;2023-10-09T07:55:55;101764.41;;;17.16;73.22
69574;BME280;62840;52.366;5.980;2023-10-09T07:58:22;101752.63;;;17.17;73.29
69574;BME280;62840;52.366;5.980;2023-10-09T08:00:48;101761.41;;;17.19;73.40
69574;BME280;62840;52.366;5.980;2023-10-09T08:03:13;101759.41;;;17.21;73.49
69574;BME280;62840;52.366;5.980;2023-10-09T08:05:42;101772.63;;;17.24;73.32
69574;BME280;62840;52.366;5.980;2023-10-09T08:08:08;101784.09;;;17.26;73.67
69574;BME280;62840;52.366;5.980;2023-10-09T08:10:33;101780.25;;;17.29;73.69
69574;BME280;62840;52.366;5.980;2023-10-09T08:13:02;101752.16;;;17.31;73.40
69574;BME280;62840;52.366;5.980;2023-10-09T08:15:28;101745.59;;;17.34;73.23
69574;BME280;62840;52.366;5.980;2023-10-09T08:17:55;101749.00;;;17.36;73.22
69574;BME280;62840;52.366;5.980;2023-10-09T08:20:22;101736.22;;;17.38;73.55
69574;BME280;62840;52.366;5.980;2023-10-09T08:22:48;101747.56;;;17.42;73.52
69574;BME280;62840;52.366;5.980;2023-10-09T08:25:14;101759.72;;;17.46;73.91
69574;BME280;62840;52.366;5.980;2023-10-09T08:27:40;101762.16;;;17.49;73.71
69574;BME280;62840;52.366;5.980;2023-10-09T08:30:09;101757.44;;;17.51;73.68
69574;BME280;62840;52.366;5.980;2023-10-09T08:32:35;101760.84;;;17.53;73.75
69574;BME280;62840;52.366;5.980;2023-10-09T08:35:00;101771.34;;;17.56;73.66
69574;BME280;62840;52.366;5.980;2023-10-09T08:37:26;101798.00;;;17.59;73.40
69574;BME280;62840;52.366;5.980;2023-10-09T08:39:52;101806.78;;;17.61;73.60
69574;BME280;62840;52.366;5.980;2023-10-09T08:42:18;101824.38;;;17.65;74.01
69574;BME280;62840;52.366;5.980;2023-10-09T08:44:44;101826.78;;;17.68;73.86
69574;BME280;62840;52.366;5.980;2023-10-09T08:47:13;101832.88;;;17.70;73.63
69574;BME280;62840;52.366;5.980;2023-10-09T08:49:39;101838.00;;;17.73;73.78
69574;BME280;62840;52.366;5.980;2023-10-09T08:52:05;101851.16;;;17.77;73.97
69574;BME280;62840;52.366;5.980;2023-10-09T08:54:31;101850.88;;;17.80;74.11
69574;BME280;62840;52.366;5.980;2023-10-09T08:56:57;101861.41;;;17.83;73.80
69574;BME280;62840;52.366;5.980;2023-10-09T08:59:23;101868.34;;;17.85;74.12
69574;BME280;62840;52.366;5.980;2023-10-09T09:01:49;101863.47;;;17.89;73.88
69574;BME280;62840;52.366;5.980;2023-10-09T09:04:36;101859.50;;;17.93;73.65
69574;BME280;62840;52.366;5.980;2023-10-09T09:07:02;101870.00;;;17.96;73.47
69574;BME280;62840;52.366;5.980;2023-10-09T09:09:28;101863.59;;;17.97;73.53
69574;BME280;62840;52.366;5.980;2023-10-09T09:11:53;101867.69;;;18.01;73.38
69574;BME280;62840;52.366;5.980;2023-10-09T09:14:19;101885.28;;;18.05;73.93
69574;BME280;62840;52.366;5.980;2023-10-09T09:16:45;101886.97;;;18.06;73.91
69574;BME280;62840;52.366;5.980;2023-10-09T09:19:11;101884.00;;;18.09;73.63
69574;BME280;62840;52.366;5.980;2023-10-09T09:21:41;101891.78;;;18.12;74.02
69574;BME280;62840;52.366;5.980;2023-10-09T09:24:09;101889.78;;;18.14;74.02
69574;BME280;62840;52.366;5.980;2023-10-09T09:26:37;101878.66;;;18.18;73.72
69574;BME280;62840;52.366;5.980;2023-10-09T09:29:05;101871.28;;;18.20;73.56
69574;BME280;62840;52.366;5.980;2023-10-09T09:31:31;101871.66;;;18.25;73.61
69574;BME280;62840;52.366;5.980;2023-10-09T09:33:57;101874.06;;;18.28;73.46
69574;BME280;62840;52.366;5.980;2023-10-09T09:36:23;101879.84;;;18.33;73.44
69574;BME280;62840;52.366;5.980;2023-10-09T09:38:51;101877.16;;;18.33;73.29
69574;BME280;62840;52.366;5.980;2023-10-09T09:41:18;101872.47;;;18.35;73.46
69574;BME280;62840;52.366;5.980;2023-10-09T09:43:45;101867.75;;;18.37;73.18
69574;BME280;62840;52.366;5.980;2023-10-09T09:46:11;101868.59;;;18.38;73.42
69574;BME280;62840;52.366;5.980;2023-10-09T09:48:41;101875.72;;;18.39;72.96
69574;BME280;62840;52.366;5.980;2023-10-09T09:51:07;101869.16;;;18.41;73.02
69574;BME280;62840;52.366;5.980;2023-10-09T09:53:33;101869.84;;;18.43;73.01
69574;BME280;62840;52.366;5.980;2023-10-09T09:56:03;101875.91;;;18.45;73.02
69574;BME280;62840;52.366;5.980;2023-10-09T09:58:31;101879.31;;;18.47;73.03
69574;BME280;62840;52.366;5.980;2023-10-09T10:01:02;101886.13;;;18.51;73.25
69574;BME280;62840;52.366;5.980;2023-10-09T10:03:35;101893.25;;;18.52;72.64
69574;BME280;62840;52.366;5.980;2023-10-09T10:06:05;101880.44;;;18.54;72.71
69574;BME280;62840;52.366;5.980;2023-10-09T10:08:32;101881.09;;;18.56;72.79
69574;BME280;62840;52.366;5.980;2023-10-09T10:10:59;101880.13;;;18.58;72.66
69574;BME280;62840;52.366;5.980;2023-10-09T10:13:54;101876.09;;;18.62;73.06
69574;BME280;62840;52.366;5.980;2023-10-09T10:16:20;101881.19;;;18.65;72.77
69574;BME280;62840;52.366;5.980;2023-10-09T10:18:53;101869.38;;;18.66;72.92
69574;BME280;62840;52.366;5.980;2023-10-09T10:21:23;101875.47;;;18.68;73.00
69574;BME280;62840;52.366;5.980;2023-10-09T10:23:48;101878.88;;;18.70;73.00
69574;BME280;62840;52.366;5.980;2023-10-09T10:26:21;101876.75;;;18.73;72.45
69574;BME280;62840;52.366;5.980;2023-10-09T10:29:15;101881.13;;;18.74;72.80
69574;BME280;62840;52.366;5.980;2023-10-09T10:32:00;101878.28;;;18.76;72.68
69574;BME280;62840;52.366;5.980;2023-10-09T10:34:53;101873.56;;;18.78;72.44
69574;BME280;62840;52.366;5.980;2023-10-09T10:37:19;101897.91;;;18.78;72.58
69574;BME280;62840;52.366;5.980;2023-10-09T10:39:49;101895.88;;;18.80;72.58
69574;BME280;62840;52.366;5.980;2023-10-09T10:42:18;101890.16;;;18.83;72.50
69574;BME280;62840;52.366;5.980;2023-10-09T10:44:44;101882.75;;;18.85;72.46
69574;BME280;62840;52.366;5.980;2023-10-09T10:47:11;101887.00;;;18.88;72.65
69574;BME280;62840;52.366;5.980;2023-10-09T10:49:43;101869.59;;;18.90;72.60
69574;BME280;62840;52.366;5.980;2023-10-09T10:52:20;101894.63;;;18.92;72.21
69574;BME280;62840;52.366;5.980;2023-10-09T10:54:46;101881.81;;;18.94;72.29
69574;BME280;62840;52.366;5.980;2023-10-09T10:57:21;101889.78;;;18.96;72.26
69574;BME280;62840;52.366;5.980;2023-10-09T10:59:47;101885.06;;;18.98;72.54
69574;BME280;62840;52.366;5.980;2023-10-09T11:02:13;101881.19;;;19.01;72.04
69574;BME280;62840;52.366;5.980;2023-10-09T11:04:39;101897.97;;;19.04;71.91
69574;BME280;62840;52.366;5.980;2023-10-09T11:07:05;101882.56;;;19.05;72.15
69574;BME280;62840;52.366;5.980;2023-10-09T11:09:42;101875.16;;;19.07;72.06
69574;BME280;62840;52.366;5.980;2023-10-09T11:12:08;101887.66;;;19.08;71.87
69574;BME280;62840;52.366;5.980;2023-10-09T11:14:44;101877.88;;;19.07;72.12
69574;BME280;62840;52.366;5.980;2023-10-09T11:17:15;101887.66;;;19.08;72.08
69574;BME280;62840;52.366;5.980;2023-10-09T11:19:41;101880.25;;;19.10;71.75
69574;BME280;62840;52.366;5.980;2023-10-09T11:22:07;101877.53;;;19.10;71.69
69574;BME280;62840;52.366;5.980;2023-10-09T11:24:34;101892.78;;;19.11;71.87
69574;BME280;62840;52.366;5.980;2023-10-09T11:27:01;101891.75;;;19.12;72.07
69574;BME280;62840;52.366;5.980;2023-10-09T11:29:27;101894.47;;;19.12;72.01
69574;BME280;62840;52.366;5.980;2023-10-09T11:32:02;101897.00;;;19.13;71.61
69574;BME280;62840;52.366;5.980;2023-10-09T11:34:29;101897.00;;;19.13;71.99
69574;BME280;62840;52.366;5.980;2023-10-09T11:36:56;101901.59;;;19.13;71.91
69574;BME280;62840;52.366;5.980;2023-10-09T11:39:25;101903.97;;;19.16;71.43
69574;BME280;62840;52.366;5.980;2023-10-09T11:42:03;101903.13;;;19.15;71.88
69574;BME280;62840;52.366;5.980;2023-10-09T11:44:37;101892.44;;;19.14;71.76
69574;BME280;62840;52.366;5.980;2023-10-09T11:47:07;101901.25;;;19.16;71.60
69574;BME280;62840;52.366;5.980;2023-10-09T11:49:33;101899.53;;;19.15;71.88
69574;BME280;62840;52.366;5.980;2023-10-09T11:52:05;101904.94;;;19.15;71.69
69574;BME280;62840;52.366;5.980;2023-10-09T11:54:32;101905.97;;;19.14;71.39
69574;BME280;62840;52.366;5.980;2023-10-09T11:56:58;101901.59;;;19.13;71.51
69574;BME280;62840;52.366;5.980;2023-10-09T11:59:24;101912.41;;;19.13;71.69
69574;BME280;62840;52.366;5.980;2023-10-09T12:01:49;101905.28;;;19.12;71.90
69574;BME280;62840;52.366;5.980;2023-10-09T12:04:18;101910.69;;;19.12;71.89
69574;BME280;62840;52.366;5.980;2023-10-09T12:06:43;101909.00;;;19.11;71.53
69574;BME280;62840;52.366;5.980;2023-10-09T12:09:09;101896.47;;;19.10;71.54
69574;BME280;62840;52.366;5.980;2023-10-09T12:11:35;101894.47;;;19.12;71.39
69574;BME280;62840;52.366;5.980;2023-10-09T12:14:01;101893.75;;;19.10;71.72
69574;BME280;62840;52.366;5.980;2023-10-09T12:16:27;101891.06;;;19.10;71.35
69574;BME280;62840;52.366;5.980;2023-10-09T12:18:52;101893.63;;;19.11;71.71
69574;BME280;62840;52.366;5.980;2023-10-09T12:21:21;101887.38;;;19.11;71.21
69574;BME280;62840;52.366;5.980;2023-10-09T12:23:46;101890.06;;;19.11;71.58
69574;BME280;62840;52.366;5.980;2023-10-09T12:26:13;101888.34;;;19.10;71.64
69574;BME280;62840;52.366;5.980;2023-10-09T12:28:38;101889.38;;;19.09;71.22
69574;BME280;62840;52.366;5.980;2023-10-09T12:31:04;101892.09;;;19.09;71.36
69574;BME280;62840;52.366;5.980;2023-10-09T12:33:30;101892.09;;;19.09;71.70
69574;BME280;62840;52.366;5.980;2023-10-09T12:35:56;101890.22;;;19.09;71.24
69574;BME280;62840;52.366;5.980;2023-10-09T12:38:25;101891.38;;;19.07;71.64
69574;BME280;62840;52.366;5.980;2023-10-09T12:40:51;101888.69;;;19.07;71.33
69574;BME280;62840;52.366;5.980;2023-10-09T12:43:17;101887.66;;;19.08;71.58
69574;BME280;62840;52.366;5.980;2023-10-09T12:45:43;101894.78;;;19.09;71.75
69574;BME280;62840;52.366;5.980;2023-10-09T12:48:09;101886.66;;;19.09;71.52
69574;BME280;62840;52.366;5.980;2023-10-09T12:50:35;101892.78;;;19.11;71.49